Ladd, North Dakota
Current Conditions -  °F | °C
As of 7:53 PM on Wednesday 22 Oct 2014 (Local Time) from KHEI Reporting Station
Clear Clear  
Wind Chill: 42°   Ceiling: Unl
Heat Index: 42°   Visibility: 10mi
Dew Point: 29°   Wind: 3mph
Humidity: 60%   Direction: 310°NW
Pressure: 29.96"   Gusts: NA
Location:  46.1126°N, 103.431°W
Report Text: KHEI 230153Z AUTO 31003KT 10SM CLR 06/M02 A2996 RMK AO2 SLP157 T00561017
Loading
Personal Weather Stations






























Interactive Weather Map
Tropical Storm Tracking
New forecast layout! Learn more

10-Day Weather Forecast

Advertisements
Track Severe Weather on mobile